sensor_id;sensor_type;location;lat;lon;timestamp;P1;P2;P0
76045;PMS7003;64741;41.730;44.788;2023-09-07T00:01:12;6.6;5.6;4
76045;PMS7003;64741;41.730;44.788;2023-09-07T00:06:18;5.8;4.8;3.6
76045;PMS7003;64741;41.730;44.788;2023-09-07T00:10:50;6.8;4.8;3.6
76045;PMS7003;64741;41.730;44.788;2023-09-07T00:16:06;5.2;4;3.2
76045;PMS7003;64741;41.730;44.788;2023-09-07T00:21:16;6.8;4.6;4
76045;PMS7003;64741;41.730;44.788;2023-09-07T00:26:12;6;5.6;4.4
76045;PMS7003;64741;41.730;44.788;2023-09-07T00:31:18;5.8;4.6;3.6
76045;PMS7003;64741;41.730;44.788;2023-09-07T00:36:14;6.4;5.8;5
76045;PMS7003;64741;41.730;44.788;2023-09-07T00:41:18;6;5.4;4.2
76045;PMS7003;64741;41.730;44.788;2023-09-07T00:46:12;6.4;5.2;3.8
76045;PMS7003;64741;41.730;44.788;2023-09-07T00:51:12;6.2;5.6;4.4
76045;PMS7003;64741;41.730;44.788;2023-09-07T00:56:18;6;5.2;4.2
76045;PMS7003;64741;41.730;44.788;2023-09-07T01:01:14;5.6;5.4;4.4
76045;PMS7003;64741;41.730;44.788;2023-09-07T01:06:20;5.6;5.4;4
76045;PMS7003;64741;41.730;44.788;2023-09-07T01:11:17;5.2;4.8;3.6
76045;PMS7003;64741;41.730;44.788;2023-09-07T01:16:12;5;5;3.8
76045;PMS7003;64741;41.730;44.788;2023-09-07T01:21:18;5.6;4.6;3.4
76045;PMS7003;64741;41.730;44.788;2023-09-07T01:26:14;6;5.4;3.8
76045;PMS7003;64741;41.730;44.788;2023-09-07T01:31:18;5.8;5.2;3.8
76045;PMS7003;64741;41.730;44.788;2023-09-07T01:36:16;5.4;4.6;3
76045;PMS7003;64741;41.730;44.788;2023-09-07T01:41:12;6;4.8;3.6
76045;PMS7003;64741;41.730;44.788;2023-09-07T01:46:18;5.8;5.2;3.8
76045;PMS7003;64741;41.730;44.788;2023-09-07T01:51:12;4.6;4;3.4
76045;PMS7003;64741;41.730;44.788;2023-09-07T01:56:18;5.6;4.8;3.6
76045;PMS7003;64741;41.730;44.788;2023-09-07T02:01:20;5.8;4.8;3.8
76045;PMS7003;64741;41.730;44.788;2023-09-07T02:05:58;5.8;4.6;3.2
76045;PMS7003;64741;41.730;44.788;2023-09-07T02:10:52;6.2;5.2;3.8
76045;PMS7003;64741;41.730;44.788;2023-09-07T02:16:15;6.2;5.4;4.2
76045;PMS7003;64741;41.730;44.788;2023-09-07T02:21:18;4.8;4.8;3.6
76045;PMS7003;64741;41.730;44.788;2023-09-07T02:26:16;4.3;3.5;3.3
76045;PMS7003;64741;41.730;44.788;2023-09-07T02:30:36;6.8;5.2;4.4
76045;PMS7003;64741;41.730;44.788;2023-09-07T02:36:18;6.8;5.2;3.8
76045;PMS7003;64741;41.730;44.788;2023-09-07T02:41:14;5.4;4.6;3.2
76045;PMS7003;64741;41.730;44.788;2023-09-07T02:46:18;5.4;5;3.8
76045;PMS7003;64741;41.730;44.788;2023-09-07T02:51:16;6.6;5.4;4.4
76045;PMS7003;64741;41.730;44.788;2023-09-07T02:55:58;5.2;4.8;4.2
76045;PMS7003;64741;41.730;44.788;2023-09-07T03:01:18;4.2;3.6;2.6
76045;PMS7003;64741;41.730;44.788;2023-09-07T03:06:14;5.4;4.8;4
76045;PMS7003;64741;41.730;44.788;2023-09-07T03:11:18;4.4;4.2;3.4
76045;PMS7003;64741;41.730;44.788;2023-09-07T03:16:16;6.2;5.2;4.2
76045;PMS7003;64741;41.730;44.788;2023-09-07T03:21:12;6.2;6;3.8
76045;PMS7003;64741;41.730;44.788;2023-09-07T03:26:18;5.2;4.8;3.6
76045;PMS7003;64741;41.730;44.788;2023-09-07T03:31:14;5.6;4.2;3.4
76045;PMS7003;64741;41.730;44.788;2023-09-07T03:36:18;5.2;4.4;3.4
76045;PMS7003;64741;41.730;44.788;2023-09-07T03:41:14;4.4;4.2;2.4
76045;PMS7003;64741;41.730;44.788;2023-09-07T03:46:10;5.4;5;4
76045;PMS7003;64741;41.730;44.788;2023-09-07T03:51:17;6.8;5.2;4
76045;PMS7003;64741;41.730;44.788;2023-09-07T03:56:14;5;4.6;4
76045;PMS7003;64741;41.730;44.788;2023-09-07T04:01:16;6;5.8;4
76045;PMS7003;64741;41.730;44.788;2023-09-07T04:05:54;6.8;6;4.4
76045;PMS7003;64741;41.730;44.788;2023-09-07T04:11:12;6.4;5.6;4.2
76045;PMS7003;64741;41.730;44.788;2023-09-07T04:16:18;4.6;3.8;2.6
76045;PMS7003;64741;41.730;44.788;2023-09-07T04:21:03;6;5.2;4
76045;PMS7003;64741;41.730;44.788;2023-09-07T04:26:18;6;5;4
76045;PMS7003;64741;41.730;44.788;2023-09-07T04:31:14;5.6;4.8;3.8
76045;PMS7003;64741;41.730;44.788;2023-09-07T04:36:11;6.6;5.6;4
76045;PMS7003;64741;41.730;44.788;2023-09-07T04:41:18;5.4;4.8;4.2
76045;PMS7003;64741;41.730;44.788;2023-09-07T04:46:13;6.4;5.8;4.6
76045;PMS7003;64741;41.730;44.788;2023-09-07T04:51:18;6;5.6;4.4
76045;PMS7003;64741;41.730;44.788;2023-09-07T04:56:14;6.4;5;3.4
76045;PMS7003;64741;41.730;44.788;2023-09-07T05:01:11;6.8;6.2;5.2
76045;PMS7003;64741;41.730;44.788;2023-09-07T05:06:12;8.2;7;5
76045;PMS7003;64741;41.730;44.788;2023-09-07T05:11:18;5.8;4.8;4.2
76045;PMS7003;64741;41.730;44.788;2023-09-07T05:16:00;6.4;6.2;4.8
76045;PMS7003;64741;41.730;44.788;2023-09-07T05:20:52;7.2;5.8;4.6
76045;PMS7003;64741;41.730;44.788;2023-09-07T05:26:14;7.2;5.8;4.6
76045;PMS7003;64741;41.730;44.788;2023-09-07T05:30:48;7;6.2;4.8
76045;PMS7003;64741;41.730;44.788;2023-09-07T05:36:18;6.4;5.2;3.8
76045;PMS7003;64741;41.730;44.788;2023-09-07T05:41:14;6.4;5.6;4
76045;PMS7003;64741;41.730;44.788;2023-09-07T05:45:58;6;5.2;4
76045;PMS7003;64741;41.730;44.788;2023-09-07T05:51:14;7.6;5.4;4.6
76045;PMS7003;64741;41.730;44.788;2023-09-07T05:56:12;5.2;4.2;3.2
76045;PMS7003;64741;41.730;44.788;2023-09-07T06:01:16;4.8;4.6;3.4
76045;PMS7003;64741;41.730;44.788;2023-09-07T06:06:14;7.8;5.8;4.2
76045;PMS7003;64741;41.730;44.788;2023-09-07T06:11:10;7;5;3.2
76045;PMS7003;64741;41.730;44.788;2023-09-07T06:16:14;6.2;5.6;3.6
76045;PMS7003;64741;41.730;44.788;2023-09-07T06:21:12;6.8;5.8;4.6
76045;PMS7003;64741;41.730;44.788;2023-09-07T06:26:18;7;6;4.6
76045;PMS7003;64741;41.730;44.788;2023-09-07T06:31:14;6;5.8;4.2
76045;PMS7003;64741;41.730;44.788;2023-09-07T06:36:10;6;5;3.8
76045;PMS7003;64741;41.730;44.788;2023-09-07T06:41:14;6.4;5.8;3.8
76045;PMS7003;64741;41.730;44.788;2023-09-07T06:46:12;7.6;6;4.4
76045;PMS7003;64741;41.730;44.788;2023-09-07T06:51:18;6.4;5.8;3.8
76045;PMS7003;64741;41.730;44.788;2023-09-07T06:56:12;7.8;6.4;4.8
76045;PMS7003;64741;41.730;44.788;2023-09-07T07:01:10;6.6;5.6;4.6
76045;PMS7003;64741;41.730;44.788;2023-09-07T07:06:12;6.8;6;4.4
76045;PMS7003;64741;41.730;44.788;2023-09-07T07:11:10;6;5.4;4.2
76045;PMS7003;64741;41.730;44.788;2023-09-07T07:16:18;7.8;6.4;5
76045;PMS7003;64741;41.730;44.788;2023-09-07T07:21:14;7.2;5.8;4.4
76045;PMS7003;64741;41.730;44.788;2023-09-07T07:26:10;5.6;5;3.8
76045;PMS7003;64741;41.730;44.788;2023-09-07T07:31:14;5.2;4.4;3.4
76045;PMS7003;64741;41.730;44.788;2023-09-07T07:36:12;5.5;5;3.5
76045;PMS7003;64741;41.730;44.788;2023-09-07T07:41:18;6.8;6.2;4.8
76045;PMS7003;64741;41.730;44.788;2023-09-07T07:46:15;7.2;6.2;4.6
76045;PMS7003;64741;41.730;44.788;2023-09-07T07:51:10;8.6;6.4;4.8
76045;PMS7003;64741;41.730;44.788;2023-09-07T07:56:15;5.4;4.4;3.4
76045;PMS7003;64741;41.730;44.788;2023-09-07T08:01:13;7;6.6;5
76045;PMS7003;64741;41.730;44.788;2023-09-07T08:06:18;11.8;10;7.8
76045;PMS7003;64741;41.730;44.788;2023-09-07T08:11:14;28.6;24.2;17.4
76045;PMS7003;64741;41.730;44.788;2023-09-07T08:16:08;101.4;93.2;68.4
76045;PMS7003;64741;41.730;44.788;2023-09-07T08:21:14;59;50.4;36.6
76045;PMS7003;64741;41.730;44.788;2023-09-07T08:26:13;50.8;41.4;29.2
76045;PMS7003;64741;41.730;44.788;2023-09-07T08:31:18;51.2;40.8;29.4
76045;PMS7003;64741;41.730;44.788;2023-09-07T08:36:14;56.8;44.8;31.4
76045;PMS7003;64741;41.730;44.788;2023-09-07T08:41:00;21;17.8;13
76045;PMS7003;64741;41.730;44.788;2023-09-07T08:46:04;27;21.8;15.4
76045;PMS7003;64741;41.730;44.788;2023-09-07T08:51:13;19.2;15.4;11.2
76045;PMS7003;64741;41.730;44.788;2023-09-07T08:56:18;10.6;9.6;7.6
76045;PMS7003;64741;41.730;44.788;2023-09-07T09:01:15;19.2;15.8;11.6
76045;PMS7003;64741;41.730;44.788;2023-09-07T09:06:09;29.6;25.2;17.6
76045;PMS7003;64741;41.730;44.788;2023-09-07T09:11:17;28;24.6;17
76045;PMS7003;64741;41.730;44.788;2023-09-07T09:16:11;18;15.2;12.2
76045;PMS7003;64741;41.730;44.788;2023-09-07T09:21:15;10.8;8.8;7
76045;PMS7003;64741;41.730;44.788;2023-09-07T09:26:13;9.8;8.6;5.8
76045;PMS7003;64741;41.730;44.788;2023-09-07T09:31:07;9.8;8.2;6.4
76045;PMS7003;64741;41.730;44.788;2023-09-07T09:36:13;11;9.6;7.4
76045;PMS7003;64741;41.730;44.788;2023-09-07T09:41:09;10.2;8.6;7
76045;PMS7003;64741;41.730;44.788;2023-09-07T09:46:15;9.8;8.2;5.8
76045;PMS7003;64741;41.730;44.788;2023-09-07T09:51:13;9.2;7.4;5.6
76045;PMS7003;64741;41.730;44.788;2023-09-07T09:56:07;7.8;7.4;5.4
76045;PMS7003;64741;41.730;44.788;2023-09-07T10:01:13;7;6;4.8
76045;PMS7003;64741;41.730;44.788;2023-09-07T10:06:09;7.8;7;5.4
76045;PMS7003;64741;41.730;44.788;2023-09-07T10:11:17;6.4;6;4.4
76045;PMS7003;64741;41.730;44.788;2023-09-07T10:16:15;7;6;4.4
76045;PMS7003;64741;41.730;44.788;2023-09-07T10:21:09;6;5.4;4.6
76045;PMS7003;64741;41.730;44.788;2023-09-07T10:26:02;7.6;6.2;4.8
76045;PMS7003;64741;41.730;44.788;2023-09-07T10:30:35;7;5.6;4.4
76045;PMS7003;64741;41.730;44.788;2023-09-07T10:36:22;7.8;7;5.2
76045;PMS7003;64741;41.730;44.788;2023-09-07T10:41:13;9.6;9.4;7
76045;PMS7003;64741;41.730;44.788;2023-09-07T10:46:07;11;8.8;6.6
76045;PMS7003;64741;41.730;44.788;2023-09-07T10:51:13;9.8;8.4;6.2
76045;PMS7003;64741;41.730;44.788;2023-09-07T10:56:11;9;7.6;5.8
76045;PMS7003;64741;41.730;44.788;2023-09-07T11:01:17;8;7.6;5.6
76045;PMS7003;64741;41.730;44.788;2023-09-07T11:06:15;7.4;6.6;5.6
76045;PMS7003;64741;41.730;44.788;2023-09-07T11:11:09;6.8;6.8;4.8
76045;PMS7003;64741;41.730;44.788;2023-09-07T11:16:15;8;6.8;5.2
76045;PMS7003;64741;41.730;44.788;2023-09-07T11:21:11;10;8.4;6.2
76045;PMS7003;64741;41.730;44.788;2023-09-07T11:26:17;9.4;7.4;5.6
76045;PMS7003;64741;41.730;44.788;2023-09-07T11:31:13;7;6.2;4.2
76045;PMS7003;64741;41.730;44.788;2023-09-07T11:36:09;8.6;7.2;5
76045;PMS7003;64741;41.730;44.788;2023-09-07T11:41:15;8;6.2;4.8
76045;PMS7003;64741;41.730;44.788;2023-09-07T11:46:11;7.6;6.6;5
76045;PMS7003;64741;41.730;44.788;2023-09-07T11:51:17;7;5.6;4.6
76045;PMS7003;64741;41.730;44.788;2023-09-07T11:56:15;7.6;7.2;5
76045;PMS7003;64741;41.730;44.788;2023-09-07T12:01:09;7.6;6.8;5.6
76045;PMS7003;64741;41.730;44.788;2023-09-07T12:06:01;9.4;8.6;6
76045;PMS7003;64741;41.730;44.788;2023-09-07T12:10:47;9.8;8.6;6.6
76045;PMS7003;64741;41.730;44.788;2023-09-07T12:16:01;8.6;7.4;5.8
76045;PMS7003;64741;41.730;44.788;2023-09-07T12:21:15;15.4;13.2;10.4
76045;PMS7003;64741;41.730;44.788;2023-09-07T12:26:07;13.4;10.6;7.8
76045;PMS7003;64741;41.730;44.788;2023-09-07T12:31:15;8.8;8.8;6.4
76045;PMS7003;64741;41.730;44.788;2023-09-07T12:36:11;7.2;6.4;5.4
76045;PMS7003;64741;41.730;44.788;2023-09-07T12:41:17;5.6;5.6;4.2
76045;PMS7003;64741;41.730;44.788;2023-09-07T12:46:13;5.8;5.8;5
76045;PMS7003;64741;41.730;44.788;2023-09-07T12:51:07;5.4;5;3.8
76045;PMS7003;64741;41.730;44.788;2023-09-07T12:56:15;6.2;5.2;3.6
76045;PMS7003;64741;41.730;44.788;2023-09-07T13:01:11;6;5;3.6
76045;PMS7003;64741;41.730;44.788;2023-09-07T13:06:17;6;5.2;4
76045;PMS7003;64741;41.730;44.788;2023-09-07T13:11:15;5;4;3.2
76045;PMS7003;64741;41.730;44.788;2023-09-07T13:16:09;6;4.6;3.4
76045;PMS7003;64741;41.730;44.788;2023-09-07T13:21:17;6.4;5.2;3.6
76045;PMS7003;64741;41.730;44.788;2023-09-07T13:26:11;6.2;4.8;3.6
76045;PMS7003;64741;41.730;44.788;2023-09-07T13:31:11;5.8;4.8;3.8
76045;PMS7003;64741;41.730;44.788;2023-09-07T13:36:15;6.2;4.8;3.4
76045;PMS7003;64741;41.730;44.788;2023-09-07T13:41:09;10.6;9.4;6.4
76045;PMS7003;64741;41.730;44.788;2023-09-07T13:46:17;12;10.2;7.4
76045;PMS7003;64741;41.730;44.788;2023-09-07T13:51:11;11.8;8.6;5.8
76045;PMS7003;64741;41.730;44.788;2023-09-07T13:56:07;9;8.4;6.4
76045;PMS7003;64741;41.730;44.788;2023-09-07T14:01:15;8.4;7.2;5.4
76045;PMS7003;64741;41.730;44.788;2023-09-07T14:06:09;8.4;6.2;4.6
76045;PMS7003;64741;41.730;44.788;2023-09-07T14:11:17;7.4;6.8;4.6
76045;PMS7003;64741;41.730;44.788;2023-09-07T14:16:11;6.8;5.4;4.4
76045;PMS7003;64741;41.730;44.788;2023-09-07T14:21:17;6;5.6;4.2
76045;PMS7003;64741;41.730;44.788;2023-09-07T14:26:15;7;5.8;4.2
76045;PMS7003;64741;41.730;44.788;2023-09-07T14:31:09;6;5.4;4
76045;PMS7003;64741;41.730;44.788;2023-09-07T14:36:17;9.2;6.6;5.2
76045;PMS7003;64741;41.730;44.788;2023-09-07T14:41:11;6;5.8;4.4
76045;PMS7003;64741;41.730;44.788;2023-09-07T14:46:17;7.4;6.8;4.8
76045;PMS7003;64741;41.730;44.788;2023-09-07T14:51:15;6.2;5.8;4
76045;PMS7003;64741;41.730;44.788;2023-09-07T14:55:35;7.4;5.6;3.8
76045;PMS7003;64741;41.730;44.788;2023-09-07T15:01:17;7.6;6.6;5.6
76045;PMS7003;64741;41.730;44.788;2023-09-07T15:05:49;6.4;5.6;4.6
76045;PMS7003;64741;41.730;44.788;2023-09-07T15:11:03;5.8;5.6;4.6
76045;PMS7003;64741;41.730;44.788;2023-09-07T15:16:15;6.4;5.4;4
76045;PMS7003;64741;41.730;44.788;2023-09-07T15:21:09;7.8;6.4;4.2
76045;PMS7003;64741;41.730;44.788;2023-09-07T15:26:07;7.4;6.2;4.6
76045;PMS7003;64741;41.730;44.788;2023-09-07T15:31:11;8.2;7;5.6
76045;PMS7003;64741;41.730;44.788;2023-09-07T15:36:17;7.6;5.6;4.6
76045;PMS7003;64741;41.730;44.788;2023-09-07T15:41:15;6.2;6;5
76045;PMS7003;64741;41.730;44.788;2023-09-07T15:46:09;8;6.2;4.8
76045;PMS7003;64741;41.730;44.788;2023-09-07T15:51:03;6.6;6;4.6
76045;PMS7003;64741;41.730;44.788;2023-09-07T15:56:11;8.4;6.6;4.8
76045;PMS7003;64741;41.730;44.788;2023-09-07T16:01:05;6.8;5.8;5
76045;PMS7003;64741;41.730;44.788;2023-09-07T16:06:01;7;6;4.8
76045;PMS7003;64741;41.730;44.788;2023-09-07T16:11:11;7.4;6.4;4.8
76045;PMS7003;64741;41.730;44.788;2023-09-07T16:15:59;6.6;5.8;4.4
76045;PMS7003;64741;41.730;44.788;2023-09-07T16:21:13;7.2;6.2;4.6
76045;PMS7003;64741;41.730;44.788;2023-09-07T16:26:19;7.8;7.4;5
76045;PMS7003;64741;41.730;44.788;2023-09-07T16:31:15;7.8;6;4.6
76045;PMS7003;64741;41.730;44.788;2023-09-07T16:36:11;8;6.8;4.6
76045;PMS7003;64741;41.730;44.788;2023-09-07T16:41:19;7.8;6.2;5.2
76045;PMS7003;64741;41.730;44.788;2023-09-07T16:46:13;8;6.8;5
76045;PMS7003;64741;41.730;44.788;2023-09-07T16:51:19;7.4;6.2;5
76045;PMS7003;64741;41.730;44.788;2023-09-07T16:56:15;8.6;7;5.6
76045;PMS7003;64741;41.730;44.788;2023-09-07T17:01:11;7.6;7.4;5.8
76045;PMS7003;64741;41.730;44.788;2023-09-07T17:06:19;8.2;7;5.2
76045;PMS7003;64741;41.730;44.788;2023-09-07T17:11:13;9.4;7.8;6.2
76045;PMS7003;64741;41.730;44.788;2023-09-07T17:16:19;7;6.4;4.6
76045;PMS7003;64741;41.730;44.788;2023-09-07T17:21:15;7.6;6.8;5.2
76045;PMS7003;64741;41.730;44.788;2023-09-07T17:26:11;7.2;6.2;4.8
76045;PMS7003;64741;41.730;44.788;2023-09-07T17:31:12;7.6;7.2;5.6
76045;PMS7003;64741;41.730;44.788;2023-09-07T17:36:13;7;6;4.8
76045;PMS7003;64741;41.730;44.788;2023-09-07T17:41:19;7.4;5.8;4
76045;PMS7003;64741;41.730;44.788;2023-09-07T17:45:39;8.2;6.4;5
76045;PMS7003;64741;41.730;44.788;2023-09-07T17:51:11;6.6;5.8;4.2
76045;PMS7003;64741;41.730;44.788;2023-09-07T17:56:21;8.5;6.8;5
76045;PMS7003;64741;41.730;44.788;2023-09-07T18:01:15;6.6;5.8;4.4
76045;PMS7003;64741;41.730;44.788;2023-09-07T18:06:21;5.4;5;4
76045;PMS7003;64741;41.730;44.788;2023-09-07T18:11:15;7.2;6.6;4.8
76045;PMS7003;64741;41.730;44.788;2023-09-07T18:15:45;6.8;6;4.4
76045;PMS7003;64741;41.730;44.788;2023-09-07T18:21:19;7.8;6.8;5.2
76045;PMS7003;64741;41.730;44.788;2023-09-07T18:26:15;7.6;5.4;4.2
76045;PMS7003;64741;41.730;44.788;2023-09-07T18:31:21;5.8;4.6;3.6
76045;PMS7003;64741;41.730;44.788;2023-09-07T18:36:15;6.8;5.2;3.4
76045;PMS7003;64741;41.730;44.788;2023-09-07T18:41:13;5.8;5.2;3.6
76045;PMS7003;64741;41.730;44.788;2023-09-07T18:46:07;6.4;5.4;4.2
76045;PMS7003;64741;41.730;44.788;2023-09-07T18:51:15;6.8;6;4.4
76045;PMS7003;64741;41.730;44.788;2023-09-07T18:56:21;8;6.4;4.8
76045;PMS7003;64741;41.730;44.788;2023-09-07T19:01:15;6.2;6.2;4.8
76045;PMS7003;64741;41.730;44.788;2023-09-07T19:06:13;6.6;5.6;4
76045;PMS7003;64741;41.730;44.788;2023-09-07T19:11:21;5.4;4.6;3.4
76045;PMS7003;64741;41.730;44.788;2023-09-07T19:16:15;7.2;6.2;5
76045;PMS7003;64741;41.730;44.788;2023-09-07T19:21:07;7.2;5.8;4
76045;PMS7003;64741;41.730;44.788;2023-09-07T19:26:31;7.8;7.2;5.6
76045;PMS7003;64741;41.730;44.788;2023-09-07T19:31:11;6.8;6.2;4.8
76045;PMS7003;64741;41.730;44.788;2023-09-07T19:36:21;5.8;5.8;4.4
76045;PMS7003;64741;41.730;44.788;2023-09-07T19:41:07;6.4;5.8;4.6
76045;PMS7003;64741;41.730;44.788;2023-09-07T19:46:21;6.6;6.6;5
76045;PMS7003;64741;41.730;44.788;2023-09-07T19:51:15;6.6;5;3.8
76045;PMS7003;64741;41.730;44.788;2023-09-07T19:56:14;6.4;5.2;4
76045;PMS7003;64741;41.730;44.788;2023-09-07T20:01:21;7;5.8;4.6
76045;PMS7003;64741;41.730;44.788;2023-09-07T20:06:16;6;5.8;4.2
76045;PMS7003;64741;41.730;44.788;2023-09-07T20:11:19;6.4;5.8;4.2
76045;PMS7003;64741;41.730;44.788;2023-09-07T20:16:17;6;4.6;4
76045;PMS7003;64741;41.730;44.788;2023-09-07T20:21:13;6.2;6;4.4
76045;PMS7003;64741;41.730;44.788;2023-09-07T20:25:35;7.6;6.2;4.2
76045;PMS7003;64741;41.730;44.788;2023-09-07T20:31:15;6.8;6;4.4
76045;PMS7003;64741;41.730;44.788;2023-09-07T20:36:21;6.8;6.2;4.4
76045;PMS7003;64741;41.730;44.788;2023-09-07T20:41:15;8.2;6.8;4.6
76045;PMS7003;64741;41.730;44.788;2023-09-07T20:46:11;7.8;6.2;4.8
76045;PMS7003;64741;41.730;44.788;2023-09-07T20:51:21;7.4;6.2;4.6
76045;PMS7003;64741;41.730;44.788;2023-09-07T20:56:15;7.8;7;5.2
76045;PMS7003;64741;41.730;44.788;2023-09-07T21:01:21;6.2;5.4;4.2
76045;PMS7003;64741;41.730;44.788;2023-09-07T21:05:35;7.6;6.2;4.4
76045;PMS7003;64741;41.730;44.788;2023-09-07T21:11:13;6.2;5.8;4
76045;PMS7003;64741;41.730;44.788;2023-09-07T21:16:05;6.4;5.4;3.8
76045;PMS7003;64741;41.730;44.788;2023-09-07T21:21:15;7.2;6.2;4.4
76045;PMS7003;64741;41.730;44.788;2023-09-07T21:26:21;6.8;5.8;4.2
76045;PMS7003;64741;41.730;44.788;2023-09-07T21:31:15;6.4;5.4;3.8
76045;PMS7003;64741;41.730;44.788;2023-09-07T21:36:15;7.2;6.6;4.8
76045;PMS7003;64741;41.730;44.788;2023-09-07T21:41:21;6.6;6;4.6
76045;PMS7003;64741;41.730;44.788;2023-09-07T21:45:59;6.6;6;4.6
76045;PMS7003;64741;41.730;44.788;2023-09-07T21:51:17;8;6.2;4.8
76045;PMS7003;64741;41.730;44.788;2023-09-07T21:56:15;6.4;6.2;4.6
76045;PMS7003;64741;41.730;44.788;2023-09-07T22:01:15;7;6.4;4.8
76045;PMS7003;64741;41.730;44.788;2023-09-07T22:06:21;6.4;5.2;4.4
76045;PMS7003;64741;41.730;44.788;2023-09-07T22:11:15;6.4;5.8;4.4
76045;PMS7003;64741;41.730;44.788;2023-09-07T22:16:11;8.6;7;5
76045;PMS7003;64741;41.730;44.788;2023-09-07T22:21:07;7.4;6.4;5
76045;PMS7003;64741;41.730;44.788;2023-09-07T22:26:13;7.8;6.2;5
76045;PMS7003;64741;41.730;44.788;2023-09-07T22:31:11;6.4;6.2;4.6
76045;PMS7003;64741;41.730;44.788;2023-09-07T22:36:15;7.8;6;4.6
76045;PMS7003;64741;41.730;44.788;2023-09-07T22:41:15;7.8;6.2;4.6
76045;PMS7003;64741;41.730;44.788;2023-09-07T22:46:15;6.6;5.8;4.2
76045;PMS7003;64741;41.730;44.788;2023-09-07T22:51:15;5.6;5.2;4.4
76045;PMS7003;64741;41.730;44.788;2023-09-07T22:56:19;7.4;6;4.6
76045;PMS7003;64741;41.730;44.788;2023-09-07T23:01:15;6.8;6.4;4.4
76045;PMS7003;64741;41.730;44.788;2023-09-07T23:06:13;7.8;7;4.5
76045;PMS7003;64741;41.730;44.788;2023-09-07T23:11:21;6.6;5.6;4.4
76045;PMS7003;64741;41.730;44.788;2023-09-07T23:15:59;8.6;6.2;4.2
76045;PMS7003;64741;41.730;44.788;2023-09-07T23:21:03;6.4;6;4.8
76045;PMS7003;64741;41.730;44.788;2023-09-07T23:26:15;8;7.2;5.8
76045;PMS7003;64741;41.730;44.788;2023-09-07T23:31:11;8.4;7.4;4.8
76045;PMS7003;64741;41.730;44.788;2023-09-07T23:36:15;6;5.8;4.6
76045;PMS7003;64741;41.730;44.788;2023-09-07T23:41:15;6.2;5.8;4.2
76045;PMS7003;64741;41.730;44.788;2023-09-07T23:46:21;5.6;4.8;3.4
76045;PMS7003;64741;41.730;44.788;2023-09-07T23:51:15;6.8;6.4;5.2
76045;PMS7003;64741;41.730;44.788;2023-09-07T23:56:13;8.4;7.4;5.8
